sensor_id;sensor_type;location;lat;lon;timestamp;temperature;humidity
26687;DHT22;14298;50.900;4.648;2023-04-08T00:00:56;8.90;97.10
26687;DHT22;14298;50.900;4.648;2023-04-08T00:03:25;8.90;97.10
26687;DHT22;14298;50.900;4.648;2023-04-08T00:05:53;8.80;97.10
26687;DHT22;14298;50.900;4.648;2023-04-08T00:08:21;8.80;97.10
26687;DHT22;14298;50.900;4.648;2023-04-08T00:10:50;8.80;97.10
26687;DHT22;14298;50.900;4.648;2023-04-08T00:13:18;8.80;97.10
26687;DHT22;14298;50.900;4.648;2023-04-08T00:15:47;8.80;97.10
26687;DHT22;14298;50.900;4.648;2023-04-08T00:18:16;8.80;97.10
26687;DHT22;14298;50.900;4.648;2023-04-08T00:20:44;8.80;97.10
26687;DHT22;14298;50.900;4.648;2023-04-08T00:23:13;8.80;97.10
26687;DHT22;14298;50.900;4.648;2023-04-08T00:25:41;8.80;97.10
26687;DHT22;14298;50.900;4.648;2023-04-08T00:28:10;8.70;97.10
26687;DHT22;14298;50.900;4.648;2023-04-08T00:30:38;8.70;97.10
26687;DHT22;14298;50.900;4.648;2023-04-08T00:33:06;8.70;97.10
26687;DHT22;14298;50.900;4.648;2023-04-08T00:35:35;8.70;97.10
26687;DHT22;14298;50.900;4.648;2023-04-08T00:38:03;8.70;97.10
26687;DHT22;14298;50.900;4.648;2023-04-08T00:40:34;8.70;97.10
26687;DHT22;14298;50.900;4.648;2023-04-08T00:43:02;8.70;97.10
26687;DHT22;14298;50.900;4.648;2023-04-08T00:45:31;8.70;97.10
26687;DHT22;14298;50.900;4.648;2023-04-08T00:48:02;8.70;97.10
26687;DHT22;14298;50.900;4.648;2023-04-08T00:50:30;8.70;97.10
26687;DHT22;14298;50.900;4.648;2023-04-08T00:52:59;8.70;97.10
26687;DHT22;14298;50.900;4.648;2023-04-08T00:55:27;8.70;97.10
26687;DHT22;14298;50.900;4.648;2023-04-08T00:57:56;8.70;97.10
26687;DHT22;14298;50.900;4.648;2023-04-08T01:00:25;8.70;97.10
26687;DHT22;14298;50.900;4.648;2023-04-08T01:08:13;8.70;97.10
26687;DHT22;14298;50.900;4.648;2023-04-08T01:10:43;8.70;97.10
26687;DHT22;14298;50.900;4.648;2023-04-08T01:13:14;8.70;97.10
26687;DHT22;14298;50.900;4.648;2023-04-08T01:15:44;8.70;97.10
26687;DHT22;14298;50.900;4.648;2023-04-08T01:18:13;8.70;97.10
26687;DHT22;14298;50.900;4.648;2023-04-08T01:20:43;8.70;97.10
26687;DHT22;14298;50.900;4.648;2023-04-08T01:25:54;8.70;97.10
26687;DHT22;14298;50.900;4.648;2023-04-08T01:28:24;8.70;97.10
26687;DHT22;14298;50.900;4.648;2023-04-08T01:30:55;8.70;97.10
26687;DHT22;14298;50.900;4.648;2023-04-08T01:33:25;8.70;97.10
26687;DHT22;14298;50.900;4.648;2023-04-08T01:35:56;8.70;97.10
26687;DHT22;14298;50.900;4.648;2023-04-08T01:38:26;8.70;97.10
26687;DHT22;14298;50.900;4.648;2023-04-08T01:40:56;8.70;97.10
26687;DHT22;14298;50.900;4.648;2023-04-08T01:43:26;8.70;97.10
26687;DHT22;14298;50.900;4.648;2023-04-08T01:45:55;8.70;97.10
26687;DHT22;14298;50.900;4.648;2023-04-08T01:48:24;8.70;97.10
26687;DHT22;14298;50.900;4.648;2023-04-08T01:50:55;8.70;97.10
26687;DHT22;14298;50.900;4.648;2023-04-08T01:53:24;8.70;97.10
26687;DHT22;14298;50.900;4.648;2023-04-08T01:55:57;8.70;97.10
26687;DHT22;14298;50.900;4.648;2023-04-08T01:58:27;8.70;97.10
26687;DHT22;14298;50.900;4.648;2023-04-08T02:00:57;8.70;97.10
26687;DHT22;14298;50.900;4.648;2023-04-08T02:03:28;8.60;97.10
26687;DHT22;14298;50.900;4.648;2023-04-08T02:05:57;8.60;97.10
26687;DHT22;14298;50.900;4.648;2023-04-08T02:08:25;8.60;97.10
26687;DHT22;14298;50.900;4.648;2023-04-08T02:10:53;8.60;97.10
26687;DHT22;14298;50.900;4.648;2023-04-08T02:13:22;8.60;97.10
26687;DHT22;14298;50.900;4.648;2023-04-08T02:15:52;8.60;97.10
26687;DHT22;14298;50.900;4.648;2023-04-08T02:18:26;8.60;97.10
26687;DHT22;14298;50.900;4.648;2023-04-08T02:21:06;8.60;97.10
26687;DHT22;14298;50.900;4.648;2023-04-08T02:23:30;8.60;97.10
26687;DHT22;14298;50.900;4.648;2023-04-08T02:26:02;8.50;97.10
26687;DHT22;14298;50.900;4.648;2023-04-08T02:28:33;8.50;97.10
26687;DHT22;14298;50.900;4.648;2023-04-08T02:31:03;8.50;97.10
26687;DHT22;14298;50.900;4.648;2023-04-08T02:33:34;8.50;97.10
26687;DHT22;14298;50.900;4.648;2023-04-08T02:36:03;8.60;97.10
26687;DHT22;14298;50.900;4.648;2023-04-08T02:38:32;8.50;97.10
26687;DHT22;14298;50.900;4.648;2023-04-08T02:41:01;8.50;97.10
26687;DHT22;14298;50.900;4.648;2023-04-08T02:43:29;8.50;97.10
26687;DHT22;14298;50.900;4.648;2023-04-08T02:46:01;8.50;97.10
26687;DHT22;14298;50.900;4.648;2023-04-08T02:48:30;8.50;97.10
26687;DHT22;14298;50.900;4.648;2023-04-08T02:50:58;8.50;97.10
26687;DHT22;14298;50.900;4.648;2023-04-08T02:53:27;8.50;97.10
26687;DHT22;14298;50.900;4.648;2023-04-08T02:55:55;8.60;97.10
26687;DHT22;14298;50.900;4.648;2023-04-08T02:58:23;8.60;97.10
26687;DHT22;14298;50.900;4.648;2023-04-08T03:00:52;8.60;97.10
26687;DHT22;14298;50.900;4.648;2023-04-08T03:03:20;8.60;97.10
26687;DHT22;14298;50.900;4.648;2023-04-08T03:05:53;8.60;97.10
26687;DHT22;14298;50.900;4.648;2023-04-08T03:08:22;8.50;97.10
26687;DHT22;14298;50.900;4.648;2023-04-08T03:10:51;8.50;97.10
26687;DHT22;14298;50.900;4.648;2023-04-08T03:13:19;8.50;97.10
26687;DHT22;14298;50.900;4.648;2023-04-08T03:15:47;8.50;97.10
26687;DHT22;14298;50.900;4.648;2023-04-08T03:18:15;8.50;97.10
26687;DHT22;14298;50.900;4.648;2023-04-08T03:20:44;8.50;97.10
26687;DHT22;14298;50.900;4.648;2023-04-08T03:23:12;8.50;97.10
26687;DHT22;14298;50.900;4.648;2023-04-08T03:25:41;8.50;97.10
26687;DHT22;14298;50.900;4.648;2023-04-08T03:28:09;8.50;97.10
26687;DHT22;14298;50.900;4.648;2023-04-08T03:30:37;8.50;97.10
26687;DHT22;14298;50.900;4.648;2023-04-08T03:33:06;8.50;97.10
26687;DHT22;14298;50.900;4.648;2023-04-08T03:35:35;8.50;97.10
26687;DHT22;14298;50.900;4.648;2023-04-08T03:38:04;8.50;97.10
26687;DHT22;14298;50.900;4.648;2023-04-08T03:40:32;8.50;97.10
26687;DHT22;14298;50.900;4.648;2023-04-08T03:43:00;8.50;97.10
26687;DHT22;14298;50.900;4.648;2023-04-08T03:45:29;8.50;97.10
26687;DHT22;14298;50.900;4.648;2023-04-08T03:47:57;8.40;97.10
26687;DHT22;14298;50.900;4.648;2023-04-08T03:50:25;8.40;97.10
26687;DHT22;14298;50.900;4.648;2023-04-08T03:52:54;8.40;97.10
26687;DHT22;14298;50.900;4.648;2023-04-08T03:55:22;8.50;97.10
26687;DHT22;14298;50.900;4.648;2023-04-08T03:57:50;8.50;97.10
26687;DHT22;14298;50.900;4.648;2023-04-08T04:00:19;8.50;97.10
26687;DHT22;14298;50.900;4.648;2023-04-08T04:02:47;8.50;97.10
26687;DHT22;14298;50.900;4.648;2023-04-08T04:05:15;8.50;97.10
26687;DHT22;14298;50.900;4.648;2023-04-08T04:07:44;8.50;97.10
26687;DHT22;14298;50.900;4.648;2023-04-08T04:10:12;8.50;97.10
26687;DHT22;14298;50.900;4.648;2023-04-08T04:12:40;8.50;97.10
26687;DHT22;14298;50.900;4.648;2023-04-08T04:15:11;8.50;97.10
26687;DHT22;14298;50.900;4.648;2023-04-08T04:17:39;8.40;97.10
26687;DHT22;14298;50.900;4.648;2023-04-08T04:20:08;8.40;97.10
26687;DHT22;14298;50.900;4.648;2023-04-08T04:22:37;8.40;97.10
26687;DHT22;14298;50.900;4.648;2023-04-08T04:25:06;8.40;97.10
26687;DHT22;14298;50.900;4.648;2023-04-08T04:27:35;8.40;97.10
26687;DHT22;14298;50.900;4.648;2023-04-08T04:30:04;8.40;97.10
26687;DHT22;14298;50.900;4.648;2023-04-08T04:32:33;8.40;97.10
26687;DHT22;14298;50.900;4.648;2023-04-08T04:35:02;8.40;97.10
26687;DHT22;14298;50.900;4.648;2023-04-08T04:37:30;8.40;97.10
26687;DHT22;14298;50.900;4.648;2023-04-08T04:39:58;8.50;97.10
26687;DHT22;14298;50.900;4.648;2023-04-08T04:42:27;8.40;97.10
26687;DHT22;14298;50.900;4.648;2023-04-08T04:44:55;8.40;97.10
26687;DHT22;14298;50.900;4.648;2023-04-08T04:47:24;8.40;97.10
26687;DHT22;14298;50.900;4.648;2023-04-08T04:49:52;8.50;97.10
26687;DHT22;14298;50.900;4.648;2023-04-08T04:52:21;8.50;97.10
26687;DHT22;14298;50.900;4.648;2023-04-08T04:54:49;8.50;97.10
26687;DHT22;14298;50.900;4.648;2023-04-08T04:57:17;8.50;97.10
26687;DHT22;14298;50.900;4.648;2023-04-08T04:59:46;8.50;97.10
26687;DHT22;14298;50.900;4.648;2023-04-08T05:02:14;8.50;97.10
26687;DHT22;14298;50.900;4.648;2023-04-08T05:04:42;8.50;97.10
26687;DHT22;14298;50.900;4.648;2023-04-08T05:07:11;8.50;97.10
26687;DHT22;14298;50.900;4.648;2023-04-08T05:09:39;8.50;97.10
26687;DHT22;14298;50.900;4.648;2023-04-08T05:12:07;8.50;97.10
26687;DHT22;14298;50.900;4.648;2023-04-08T05:14:36;8.50;97.10
26687;DHT22;14298;50.900;4.648;2023-04-08T05:17:04;8.50;97.10
26687;DHT22;14298;50.900;4.648;2023-04-08T05:19:32;8.50;97.10
26687;DHT22;14298;50.900;4.648;2023-04-08T05:22:01;8.50;97.10
26687;DHT22;14298;50.900;4.648;2023-04-08T05:24:29;8.50;97.10
26687;DHT22;14298;50.900;4.648;2023-04-08T05:26:57;8.50;97.10
26687;DHT22;14298;50.900;4.648;2023-04-08T05:29:25;8.50;97.10
26687;DHT22;14298;50.900;4.648;2023-04-08T05:31:54;8.60;97.10
26687;DHT22;14298;50.900;4.648;2023-04-08T05:34:22;8.60;97.10
26687;DHT22;14298;50.900;4.648;2023-04-08T05:36:51;8.60;97.10
26687;DHT22;14298;50.900;4.648;2023-04-08T05:39:19;8.60;97.10
26687;DHT22;14298;50.900;4.648;2023-04-08T05:41:47;8.60;97.10
26687;DHT22;14298;50.900;4.648;2023-04-08T05:44:16;8.60;97.10
26687;DHT22;14298;50.900;4.648;2023-04-08T05:47:04;8.60;97.10
26687;DHT22;14298;50.900;4.648;2023-04-08T05:49:33;8.70;97.10
26687;DHT22;14298;50.900;4.648;2023-04-08T05:52:02;8.70;97.10
26687;DHT22;14298;50.900;4.648;2023-04-08T05:54:30;8.70;97.10
26687;DHT22;14298;50.900;4.648;2023-04-08T05:56:58;8.60;97.10
26687;DHT22;14298;50.900;4.648;2023-04-08T05:59:27;8.70;97.10
26687;DHT22;14298;50.900;4.648;2023-04-08T06:01:55;8.70;97.10
26687;DHT22;14298;50.900;4.648;2023-04-08T06:04:23;8.70;97.10
26687;DHT22;14298;50.900;4.648;2023-04-08T06:06:52;8.80;97.10
26687;DHT22;14298;50.900;4.648;2023-04-08T06:09:20;8.80;97.10
26687;DHT22;14298;50.900;4.648;2023-04-08T06:11:48;8.90;97.10
26687;DHT22;14298;50.900;4.648;2023-04-08T06:14:17;8.90;97.10
26687;DHT22;14298;50.900;4.648;2023-04-08T06:16:47;9.00;97.10
26687;DHT22;14298;50.900;4.648;2023-04-08T06:19:15;9.00;97.10
26687;DHT22;14298;50.900;4.648;2023-04-08T06:21:43;9.00;97.10
26687;DHT22;14298;50.900;4.648;2023-04-08T06:24:12;9.00;97.10
26687;DHT22;14298;50.900;4.648;2023-04-08T06:26:40;9.10;97.10
26687;DHT22;14298;50.900;4.648;2023-04-08T06:29:08;9.10;97.10
26687;DHT22;14298;50.900;4.648;2023-04-08T06:31:37;9.20;97.10
26687;DHT22;14298;50.900;4.648;2023-04-08T06:34:05;9.20;97.10
26687;DHT22;14298;50.900;4.648;2023-04-08T06:36:33;9.30;97.10
26687;DHT22;14298;50.900;4.648;2023-04-08T06:39:03;9.50;97.10
26687;DHT22;14298;50.900;4.648;2023-04-08T06:41:31;9.50;97.10
26687;DHT22;14298;50.900;4.648;2023-04-08T06:44:01;9.70;97.10
26687;DHT22;14298;50.900;4.648;2023-04-08T06:46:30;9.90;97.10
26687;DHT22;14298;50.900;4.648;2023-04-08T06:48:58;9.90;97.10
26687;DHT22;14298;50.900;4.648;2023-04-08T06:51:26;9.90;97.10
26687;DHT22;14298;50.900;4.648;2023-04-08T06:53:55;9.90;97.10
26687;DHT22;14298;50.900;4.648;2023-04-08T06:56:23;9.70;97.10
26687;DHT22;14298;50.900;4.648;2023-04-08T06:58:52;9.70;97.10
26687;DHT22;14298;50.900;4.648;2023-04-08T07:01:20;9.60;97.10
26687;DHT22;14298;50.900;4.648;2023-04-08T07:03:50;9.70;97.10
26687;DHT22;14298;50.900;4.648;2023-04-08T07:06:18;9.60;97.10
26687;DHT22;14298;50.900;4.648;2023-04-08T07:08:47;9.50;97.10
26687;DHT22;14298;50.900;4.648;2023-04-08T07:11:15;9.50;97.10
26687;DHT22;14298;50.900;4.648;2023-04-08T07:13:43;9.60;97.10
26687;DHT22;14298;50.900;4.648;2023-04-08T07:16:12;9.70;97.10
26687;DHT22;14298;50.900;4.648;2023-04-08T07:18:40;9.80;97.10
26687;DHT22;14298;50.900;4.648;2023-04-08T07:21:10;9.80;97.10
26687;DHT22;14298;50.900;4.648;2023-04-08T07:23:39;9.70;97.10
26687;DHT22;14298;50.900;4.648;2023-04-08T07:26:07;9.80;97.10
26687;DHT22;14298;50.900;4.648;2023-04-08T07:28:35;9.80;97.10
26687;DHT22;14298;50.900;4.648;2023-04-08T07:31:19;10.00;97.10
26687;DHT22;14298;50.900;4.648;2023-04-08T07:33:44;10.20;97.10
26687;DHT22;14298;50.900;4.648;2023-04-08T07:36:13;10.20;97.10
26687;DHT22;14298;50.900;4.648;2023-04-08T07:38:43;10.10;97.10
26687;DHT22;14298;50.900;4.648;2023-04-08T07:41:12;10.00;97.10
26687;DHT22;14298;50.900;4.648;2023-04-08T07:43:40;10.00;97.10
26687;DHT22;14298;50.900;4.648;2023-04-08T07:46:09;10.00;97.10
26687;DHT22;14298;50.900;4.648;2023-04-08T07:48:37;10.20;97.10
26687;DHT22;14298;50.900;4.648;2023-04-08T07:53:46;10.40;97.10
26687;DHT22;14298;50.900;4.648;2023-04-08T07:56:15;10.50;97.10
26687;DHT22;14298;50.900;4.648;2023-04-08T07:58:45;10.60;97.10
26687;DHT22;14298;50.900;4.648;2023-04-08T08:01:19;10.60;97.10
26687;DHT22;14298;50.900;4.648;2023-04-08T08:03:49;10.80;97.10
26687;DHT22;14298;50.900;4.648;2023-04-08T08:06:18;10.90;97.10
26687;DHT22;14298;50.900;4.648;2023-04-08T08:08:46;11.00;97.10
26687;DHT22;14298;50.900;4.648;2023-04-08T08:11:15;11.10;97.10
26687;DHT22;14298;50.900;4.648;2023-04-08T08:13:43;11.20;97.10
26687;DHT22;14298;50.900;4.648;2023-04-08T08:16:12;11.10;97.10
26687;DHT22;14298;50.900;4.648;2023-04-08T08:18:40;11.20;97.10
26687;DHT22;14298;50.900;4.648;2023-04-08T08:21:09;11.30;97.10
26687;DHT22;14298;50.900;4.648;2023-04-08T08:23:37;11.50;97.10
26687;DHT22;14298;50.900;4.648;2023-04-08T08:26:07;11.40;97.10
26687;DHT22;14298;50.900;4.648;2023-04-08T08:28:39;11.50;97.10
26687;DHT22;14298;50.900;4.648;2023-04-08T08:31:07;11.50;97.10
26687;DHT22;14298;50.900;4.648;2023-04-08T08:33:35;11.50;97.10
26687;DHT22;14298;50.900;4.648;2023-04-08T08:36:04;11.40;97.10
26687;DHT22;14298;50.900;4.648;2023-04-08T08:38:33;11.40;97.10
26687;DHT22;14298;50.900;4.648;2023-04-08T08:41:02;11.40;97.10
26687;DHT22;14298;50.900;4.648;2023-04-08T08:43:31;11.30;97.10
26687;DHT22;14298;50.900;4.648;2023-04-08T08:46:01;11.30;97.10
26687;DHT22;14298;50.900;4.648;2023-04-08T08:48:30;11.30;97.10
26687;DHT22;14298;50.900;4.648;2023-04-08T08:50:59;11.50;97.10
26687;DHT22;14298;50.900;4.648;2023-04-08T08:53:29;11.60;97.10
26687;DHT22;14298;50.900;4.648;2023-04-08T08:55:58;11.50;97.10
26687;DHT22;14298;50.900;4.648;2023-04-08T08:58:30;11.60;97.10
26687;DHT22;14298;50.900;4.648;2023-04-08T09:00:58;11.60;97.10
26687;DHT22;14298;50.900;4.648;2023-04-08T09:03:27;11.60;97.10
26687;DHT22;14298;50.900;4.648;2023-04-08T09:06:00;11.50;97.10
26687;DHT22;14298;50.900;4.648;2023-04-08T09:08:36;11.50;97.10
26687;DHT22;14298;50.900;4.648;2023-04-08T09:11:13;11.60;97.10
26687;DHT22;14298;50.900;4.648;2023-04-08T09:13:43;11.80;97.10
26687;DHT22;14298;50.900;4.648;2023-04-08T09:16:14;11.90;97.10
26687;DHT22;14298;50.900;4.648;2023-04-08T09:18:45;12.80;97.10
26687;DHT22;14298;50.900;4.648;2023-04-08T09:21:16;14.20;97.10
26687;DHT22;14298;50.900;4.648;2023-04-08T09:23:46;16.10;97.10
26687;DHT22;14298;50.900;4.648;2023-04-08T09:26:34;18.40;97.10
26687;DHT22;14298;50.900;4.648;2023-04-08T09:29:07;18.50;97.10
26687;DHT22;14298;50.900;4.648;2023-04-08T09:31:38;19.30;97.10
26687;DHT22;14298;50.900;4.648;2023-04-08T09:34:11;19.00;97.10
26687;DHT22;14298;50.900;4.648;2023-04-08T09:36:41;21.20;97.10
26687;DHT22;14298;50.900;4.648;2023-04-08T09:39:11;23.50;97.10
26687;DHT22;14298;50.900;4.648;2023-04-08T09:41:41;25.50;97.10
26687;DHT22;14298;50.900;4.648;2023-04-08T09:44:10;25.60;97.10
26687;DHT22;14298;50.900;4.648;2023-04-08T09:52:05;18.20;97.10
26687;DHT22;14298;50.900;4.648;2023-04-08T09:54:37;16.60;97.10
26687;DHT22;14298;50.900;4.648;2023-04-08T09:57:12;15.20;97.10
26687;DHT22;14298;50.900;4.648;2023-04-08T09:59:37;14.40;97.10
26687;DHT22;14298;50.900;4.648;2023-04-08T10:02:09;13.90;97.10
26687;DHT22;14298;50.900;4.648;2023-04-08T10:04:40;13.60;97.10
26687;DHT22;14298;50.900;4.648;2023-04-08T10:07:09;13.60;97.10
26687;DHT22;14298;50.900;4.648;2023-04-08T10:09:38;13.70;97.10
26687;DHT22;14298;50.900;4.648;2023-04-08T10:12:09;14.00;97.10
26687;DHT22;14298;50.900;4.648;2023-04-08T10:14:38;13.90;97.10
26687;DHT22;14298;50.900;4.648;2023-04-08T10:17:28;13.80;97.10
26687;DHT22;14298;50.900;4.648;2023-04-08T10:19:58;13.70;97.10
26687;DHT22;14298;50.900;4.648;2023-04-08T10:27:47;14.00;97.10
26687;DHT22;14298;50.900;4.648;2023-04-08T10:33:00;13.60;97.10
26687;DHT22;14298;50.900;4.648;2023-04-08T10:35:30;13.00;97.10
26687;DHT22;14298;50.900;4.648;2023-04-08T10:37:59;12.60;97.10
26687;DHT22;14298;50.900;4.648;2023-04-08T10:40:33;12.50;97.10
26687;DHT22;14298;50.900;4.648;2023-04-08T10:42:58;12.40;97.10
26687;DHT22;14298;50.900;4.648;2023-04-08T10:45:27;12.30;97.10
26687;DHT22;14298;50.900;4.648;2023-04-08T10:47:55;12.30;97.10
26687;DHT22;14298;50.900;4.648;2023-04-08T10:50:24;12.30;97.10
26687;DHT22;14298;50.900;4.648;2023-04-08T10:52:53;12.70;97.10
26687;DHT22;14298;50.900;4.648;2023-04-08T10:55:28;12.90;97.10
26687;DHT22;14298;50.900;4.648;2023-04-08T10:57:53;13.20;97.10
26687;DHT22;14298;50.900;4.648;2023-04-08T11:00:33;13.50;97.10
26687;DHT22;14298;50.900;4.648;2023-04-08T11:03:09;13.40;97.10
26687;DHT22;14298;50.900;4.648;2023-04-08T11:05:38;13.20;97.10
26687;DHT22;14298;50.900;4.648;2023-04-08T11:08:06;13.10;97.10
26687;DHT22;14298;50.900;4.648;2023-04-08T11:10:38;13.10;97.10
26687;DHT22;14298;50.900;4.648;2023-04-08T11:13:08;13.20;97.10
26687;DHT22;14298;50.900;4.648;2023-04-08T11:15:40;13.10;97.10
26687;DHT22;14298;50.900;4.648;2023-04-08T11:18:10;13.50;97.10
26687;DHT22;14298;50.900;4.648;2023-04-08T11:20:38;14.00;97.10
26687;DHT22;14298;50.900;4.648;2023-04-08T11:23:13;14.30;97.10
26687;DHT22;14298;50.900;4.648;2023-04-08T11:25:42;14.50;97.10
26687;DHT22;14298;50.900;4.648;2023-04-08T11:28:11;14.30;97.10
26687;DHT22;14298;50.900;4.648;2023-04-08T11:30:42;13.90;97.10
26687;DHT22;14298;50.900;4.648;2023-04-08T11:33:12;13.50;97.10
26687;DHT22;14298;50.900;4.648;2023-04-08T11:35:42;13.20;97.10
26687;DHT22;14298;50.900;4.648;2023-04-08T11:38:11;13.10;97.10
26687;DHT22;14298;50.900;4.648;2023-04-08T11:40:59;13.20;97.10
26687;DHT22;14298;50.900;4.648;2023-04-08T11:43:27;13.50;97.10
26687;DHT22;14298;50.900;4.648;2023-04-08T11:45:56;13.70;97.10
26687;DHT22;14298;50.900;4.648;2023-04-08T11:48:24;13.80;97.10
26687;DHT22;14298;50.900;4.648;2023-04-08T11:51:04;13.80;97.10
26687;DHT22;14298;50.900;4.648;2023-04-08T11:53:34;13.90;97.10
26687;DHT22;14298;50.900;4.648;2023-04-08T11:56:18;14.40;97.10
26687;DHT22;14298;50.900;4.648;2023-04-08T11:58:47;14.60;97.10
26687;DHT22;14298;50.900;4.648;2023-04-08T12:01:15;14.50;97.10
26687;DHT22;14298;50.900;4.648;2023-04-08T12:03:58;13.80;97.10
26687;DHT22;14298;50.900;4.648;2023-04-08T12:06:27;13.30;97.10
26687;DHT22;14298;50.900;4.648;2023-04-08T12:08:57;13.30;97.10
26687;DHT22;14298;50.900;4.648;2023-04-08T12:11:26;13.40;97.10
26687;DHT22;14298;50.900;4.648;2023-04-08T12:13:54;13.30;97.10
26687;DHT22;14298;50.900;4.648;2023-04-08T12:16:23;13.30;97.10
26687;DHT22;14298;50.900;4.648;2023-04-08T12:18:51;13.60;97.10
26687;DHT22;14298;50.900;4.648;2023-04-08T12:21:20;13.60;97.10
26687;DHT22;14298;50.900;4.648;2023-04-08T12:23:49;13.70;97.10
26687;DHT22;14298;50.900;4.648;2023-04-08T12:26:18;14.10;97.10
26687;DHT22;14298;50.900;4.648;2023-04-08T12:28:46;14.00;97.10
26687;DHT22;14298;50.900;4.648;2023-04-08T12:31:15;13.70;97.10
26687;DHT22;14298;50.900;4.648;2023-04-08T12:33:43;13.80;97.10
26687;DHT22;14298;50.900;4.648;2023-04-08T12:36:12;13.90;97.10
26687;DHT22;14298;50.900;4.648;2023-04-08T12:38:40;14.30;97.10
26687;DHT22;14298;50.900;4.648;2023-04-08T12:41:08;14.50;97.10
26687;DHT22;14298;50.900;4.648;2023-04-08T12:43:37;14.60;97.10
26687;DHT22;14298;50.900;4.648;2023-04-08T12:46:05;14.70;97.10
26687;DHT22;14298;50.900;4.648;2023-04-08T12:48:34;14.60;97.10
26687;DHT22;14298;50.900;4.648;2023-04-08T12:51:03;14.20;97.10
26687;DHT22;14298;50.900;4.648;2023-04-08T12:53:31;14.10;97.10
26687;DHT22;14298;50.900;4.648;2023-04-08T12:56:00;14.10;97.10
26687;DHT22;14298;50.900;4.648;2023-04-08T12:58:29;13.90;97.10
26687;DHT22;14298;50.900;4.648;2023-04-08T13:00:57;13.70;97.10
26687;DHT22;14298;50.900;4.648;2023-04-08T13:03:25;13.60;97.10
26687;DHT22;14298;50.900;4.648;2023-04-08T13:05:55;13.80;97.10
26687;DHT22;14298;50.900;4.648;2023-04-08T13:08:25;13.90;97.10
26687;DHT22;14298;50.900;4.648;2023-04-08T13:10:53;14.00;97.10
26687;DHT22;14298;50.900;4.648;2023-04-08T13:13:22;14.00;97.10
26687;DHT22;14298;50.900;4.648;2023-04-08T13:15:50;14.10;97.10
26687;DHT22;14298;50.900;4.648;2023-04-08T13:18:19;14.30;97.10
26687;DHT22;14298;50.900;4.648;2023-04-08T13:20:47;14.40;97.10
26687;DHT22;14298;50.900;4.648;2023-04-08T13:23:15;14.50;97.10
26687;DHT22;14298;50.900;4.648;2023-04-08T13:25:44;14.60;97.10
26687;DHT22;14298;50.900;4.648;2023-04-08T13:28:12;14.80;97.10
26687;DHT22;14298;50.900;4.648;2023-04-08T13:30:41;14.90;97.10
26687;DHT22;14298;50.900;4.648;2023-04-08T13:33:09;15.10;97.10
26687;DHT22;14298;50.900;4.648;2023-04-08T13:35:37;14.90;97.10
26687;DHT22;14298;50.900;4.648;2023-04-08T13:38:06;14.70;97.10
26687;DHT22;14298;50.900;4.648;2023-04-08T13:40:34;14.50;97.10
26687;DHT22;14298;50.900;4.648;2023-04-08T13:43:03;14.20;97.10
26687;DHT22;14298;50.900;4.648;2023-04-08T13:45:31;13.60;97.10
26687;DHT22;14298;50.900;4.648;2023-04-08T13:47:59;13.60;97.10
26687;DHT22;14298;50.900;4.648;2023-04-08T13:50:27;13.80;97.10
26687;DHT22;14298;50.900;4.648;2023-04-08T13:52:56;13.90;97.10
26687;DHT22;14298;50.900;4.648;2023-04-08T13:55:24;14.00;97.10
26687;DHT22;14298;50.900;4.648;2023-04-08T13:57:53;14.20;97.10
26687;DHT22;14298;50.900;4.648;2023-04-08T14:00:21;14.40;97.10
26687;DHT22;14298;50.900;4.648;2023-04-08T14:02:51;14.70;97.10
26687;DHT22;14298;50.900;4.648;2023-04-08T14:05:19;14.90;97.10
26687;DHT22;14298;50.900;4.648;2023-04-08T14:07:48;14.70;97.10
26687;DHT22;14298;50.900;4.648;2023-04-08T14:10:16;14.60;97.10
26687;DHT22;14298;50.900;4.648;2023-04-08T14:12:44;14.50;97.10
26687;DHT22;14298;50.900;4.648;2023-04-08T14:15:13;14.40;97.10
26687;DHT22;14298;50.900;4.648;2023-04-08T14:17:41;14.10;97.10
26687;DHT22;14298;50.900;4.648;2023-04-08T14:20:10;13.90;97.10
26687;DHT22;14298;50.900;4.648;2023-04-08T14:22:38;13.90;97.10
26687;DHT22;14298;50.900;4.648;2023-04-08T14:25:08;13.80;97.10
26687;DHT22;14298;50.900;4.648;2023-04-08T14:27:36;13.70;97.10
26687;DHT22;14298;50.900;4.648;2023-04-08T14:30:06;13.80;97.10
26687;DHT22;14298;50.900;4.648;2023-04-08T14:32:34;13.80;97.10
26687;DHT22;14298;50.900;4.648;2023-04-08T14:35:03;13.90;97.10
26687;DHT22;14298;50.900;4.648;2023-04-08T14:37:31;14.00;97.10
26687;DHT22;14298;50.900;4.648;2023-04-08T14:40:00;14.10;97.10
26687;DHT22;14298;50.900;4.648;2023-04-08T14:42:29;14.00;97.10
26687;DHT22;14298;50.900;4.648;2023-04-08T14:44:58;14.10;97.10
26687;DHT22;14298;50.900;4.648;2023-04-08T14:47:26;14.20;97.10
26687;DHT22;14298;50.900;4.648;2023-04-08T14:49:54;14.30;97.10
26687;DHT22;14298;50.900;4.648;2023-04-08T14:52:23;14.20;97.10
26687;DHT22;14298;50.900;4.648;2023-04-08T14:54:51;14.10;97.10
26687;DHT22;14298;50.900;4.648;2023-04-08T14:57:21;13.90;97.10
26687;DHT22;14298;50.900;4.648;2023-04-08T14:59:49;13.80;97.10
26687;DHT22;14298;50.900;4.648;2023-04-08T15:02:18;13.90;97.10
26687;DHT22;14298;50.900;4.648;2023-04-08T15:04:47;13.90;97.10
26687;DHT22;14298;50.900;4.648;2023-04-08T15:07:15;14.10;97.10
26687;DHT22;14298;50.900;4.648;2023-04-08T15:09:43;14.20;97.10
26687;DHT22;14298;50.900;4.648;2023-04-08T15:12:11;14.30;97.10
26687;DHT22;14298;50.900;4.648;2023-04-08T15:14:40;14.30;97.10
26687;DHT22;14298;50.900;4.648;2023-04-08T15:17:08;14.50;97.10
26687;DHT22;14298;50.900;4.648;2023-04-08T15:19:36;14.70;97.10
26687;DHT22;14298;50.900;4.648;2023-04-08T15:22:05;15.00;97.10
26687;DHT22;14298;50.900;4.648;2023-04-08T15:24:33;14.90;97.10
26687;DHT22;14298;50.900;4.648;2023-04-08T15:27:03;14.90;97.10
26687;DHT22;14298;50.900;4.648;2023-04-08T15:29:32;15.00;97.10
26687;DHT22;14298;50.900;4.648;2023-04-08T15:32:00;15.20;97.10
26687;DHT22;14298;50.900;4.648;2023-04-08T15:34:28;15.30;97.10
26687;DHT22;14298;50.900;4.648;2023-04-08T15:36:57;15.20;97.10
26687;DHT22;14298;50.900;4.648;2023-04-08T15:39:25;14.90;97.10
26687;DHT22;14298;50.900;4.648;2023-04-08T15:41:53;14.60;97.10
26687;DHT22;14298;50.900;4.648;2023-04-08T15:44:22;14.40;97.10
26687;DHT22;14298;50.900;4.648;2023-04-08T15:46:50;14.30;97.10
26687;DHT22;14298;50.900;4.648;2023-04-08T15:49:18;14.40;97.10
26687;DHT22;14298;50.900;4.648;2023-04-08T15:51:47;14.30;97.10
26687;DHT22;14298;50.900;4.648;2023-04-08T15:54:17;14.20;97.10
26687;DHT22;14298;50.900;4.648;2023-04-08T15:56:46;14.30;97.10
26687;DHT22;14298;50.900;4.648;2023-04-08T15:59:14;14.30;97.10
26687;DHT22;14298;50.900;4.648;2023-04-08T16:01:43;14.40;97.10
26687;DHT22;14298;50.900;4.648;2023-04-08T16:04:11;14.40;97.10
26687;DHT22;14298;50.900;4.648;2023-04-08T16:06:40;14.40;97.10
26687;DHT22;14298;50.900;4.648;2023-04-08T16:09:08;14.40;97.10
26687;DHT22;14298;50.900;4.648;2023-04-08T16:11:37;14.40;97.10
26687;DHT22;14298;50.900;4.648;2023-04-08T16:14:06;14.40;97.10